首页
METAR-TAF:

METAR-TAF

机场 :

乌鲁木齐地窝堡国际机场

乌鲁木齐, 中华人民共和国

纬度: 43-54N, 经度: 087-28E, 海拔: 654米

当前天气观测

该预报发布于21分钟前的05:00 UTC
风速2节,风向多变
温度 -10°C
湿度 72%
气压 1037 hPa
能見度: 5000

METAR: ZWWW 140500Z VRB01MPS 5000 FU NSC M10/M14 Q1037 NOSIG

时间: 11:21 (05:21 UTC)

预报

该预报发布于7小时和56分钟前的21:25 UTC
预报有效从14日的 00点(UTC)到 14日的 24点(UTC)
风速4节,风向
能見度: 2500
轻雾
短暂存在
从 14日的 00点(UTC)到 14日的 04点(UTC)
能見度: 0900
多云层高于300英尺
冻雾
成为
从 14日的 05点(UTC)到 14日的 06点(UTC)
风速6节,风向
能見度: 3500
轻雾
成为
从 14日的 13点(UTC)到 14日的 14点(UTC)
风速4节,风向

TAF: ZWWW 132125Z 1400/1424 18002MPS 2500 BR NSC TXM08/09Z TNM16/23Z TEMPO 1400/1404 0900 FZFG BKN003 BECMG 1405/1406 36003MPS 3500 BR BECMG 1413/1414 18002MPS

超过4000个机场的气象观测和天气预报(METAR&TAF报告)。

可查询的气象台以黄色和红色小点在地图上表示。

将鼠标移到小点上方,可查看气象台名称。

然后点击查看天气观测和预报。

如需切换地图:点击带黑十字的绿色按钮放大地图;点击带横线的绿色按钮缩小地图;或者点击绿色箭头查看邻近地区的地图。


METAR-TAF: